Time;durP1;ratioP1;P1;durP2;ratioP2;P2;SDS_P1;SDS_P2;PMS_P1;PMS_P2;Temp;Humidity;BMP_temperature;BMP_pressure;BME280_temperature;BME280_humidity;BME280_pressure;Samples;Min_cycle;Max_cycle;Signal;HPM_P1;HPM_P2
2022/03/22 00:03:06;;;;;;;73.50;26.63;;;2.50;66.50;;;;;;10401487;28;20037;-84
2022/03/22 00:08:07;;;;;;;57.80;25.10;;;2.40;67.10;;;;;;10409062;28;20647;-84
2022/03/22 00:13:08;;;;;;;52.53;24.60;;;2.20;68.20;;;;;;10412970;28;20021;-82
2022/03/22 00:18:09;;;;;;;59.90;24.63;;;2.00;69.20;;;;;;10377293;28;20037;-83
2022/03/22 00:23:10;;;;;;;57.17;24.03;;;1.90;69.70;;;;;;10373169;28;20080;-83
2022/03/22 00:28:12;;;;;;;53.80;22.87;;;1.70;69.30;;;;;;10413738;28;20108;-83
2022/03/22 00:33:13;;;;;;;56.70;23.73;;;1.80;69.90;;;;;;10391580;28;20493;-84
2022/03/22 00:38:20;;;;;;;54.60;23.40;;;1.60;70.50;;;;;;10371892;28;20082;-83
2022/03/22 00:43:21;;;;;;;47.67;23.53;;;1.80;70.40;;;;;;10410820;28;20030;-82
2022/03/22 00:48:21;;;;;;;52.77;21.77;;;1.90;70.00;;;;;;10411029;28;20060;-83
2022/03/22 00:53:22;;;;;;;54.40;23.13;;;1.90;70.10;;;;;;10387126;28;20462;-83
2022/03/22 00:58:23;;;;;;;51.53;22.77;;;1.90;70.30;;;;;;10370711;28;20071;-84
2022/03/22 01:03:23;;;;;;;58.07;23.83;;;2.30;70.10;;;;;;10405266;28;20032;-82
2022/03/22 01:08:24;;;;;;;59.60;23.87;;;2.50;69.80;;;;;;10411167;28;20496;-82
2022/03/22 01:13:27;;;;;;;49.67;22.57;;;2.60;69.10;;;;;;10383365;28;20109;-84
2022/03/22 01:18:28;;;;;;;52.70;23.73;;;2.70;69.00;;;;;;10407883;28;20120;-84
2022/03/22 01:23:29;;;;;;;50.43;23.23;;;2.80;68.30;;;;;;10410080;28;20580;-83
2022/03/22 01:28:29;;;;;;;57.07;25.47;;;2.80;68.10;;;;;;10410790;28;20025;-82
2022/03/22 01:33:30;;;;;;;49.63;23.43;;;2.60;69.00;;;;;;10410497;28;20044;-83
2022/03/22 01:38:30;;;;;;;60.90;25.57;;;2.50;69.40;;;;;;10408642;28;20109;-82
2022/03/22 01:43:31;;;;;;;48.07;22.37;;;2.40;70.00;;;;;;10373242;28;20052;-83
2022/03/22 01:48:32;;;;;;;56.80;25.60;;;2.40;70.40;;;;;;10379975;28;20033;-83
2022/03/22 01:53:36;;;;;;;55.80;23.50;;;2.50;70.40;;;;;;10393645;28;20029;-83
2022/03/22 01:58:36;;;;;;;53.83;23.80;;;2.70;69.50;;;;;;10408157;28;20037;-83
2022/03/22 02:09:03;;;;;;;52.90;23.57;;;2.50;70.20;;;;;;10409716;28;20033;-83
2022/03/22 02:14:05;;;;;;;52.77;24.50;;;2.20;70.80;;;;;;10408992;28;20026;-85
2022/03/22 02:19:09;;;;;;;49.53;23.63;;;2.00;71.30;;;;;;10408284;28;20044;-82
2022/03/22 02:24:10;;;;;;;52.23;23.53;;;2.10;71.30;;;;;;10407927;28;20104;-84
2022/03/22 02:29:10;;;;;;;51.93;23.37;;;2.50;70.30;;;;;;10407382;28;20040;-83
2022/03/22 02:34:11;;;;;;;53.03;23.30;;;2.80;69.60;;;;;;10404270;28;20120;-82
2022/03/22 02:39:12;;;;;;;51.40;22.47;;;2.90;69.00;;;;;;10399011;28;20522;-82
2022/03/22 02:44:14;;;;;;;50.30;21.73;;;3.00;68.30;;;;;;10405609;28;20073;-83
2022/03/22 02:49:15;;;;;;;57.00;24.13;;;3.30;67.50;;;;;;10387409;28;20061;-85
2022/03/22 02:54:16;;;;;;;53.77;25.13;;;3.30;67.70;;;;;;10384272;28;20042;-83
2022/03/22 02:59:16;;;;;;;49.97;23.23;;;3.20;67.50;;;;;;10383595;28;20462;-83
2022/03/22 03:04:17;;;;;;;49.67;22.83;;;3.30;67.30;;;;;;10406715;28;20040;-84
2022/03/22 03:09:18;;;;;;;43.53;21.93;;;3.30;67.20;;;;;;10404911;28;20477;-84
2022/03/22 03:19:38;;;;;;;53.63;23.87;;;3.00;67.90;;;;;;10406626;28;20053;-83
2022/03/22 03:24:38;;;;;;;49.83;23.67;;;2.80;68.50;;;;;;10407272;28;20465;-83
2022/03/22 03:29:40;;;;;;;57.50;25.97;;;2.30;69.40;;;;;;10406924;28;20146;-83
2022/03/22 03:34:41;;;;;;;58.20;26.73;;;2.00;70.20;;;;;;10404857;28;20113;-83
2022/03/22 03:39:42;;;;;;;52.90;23.90;;;1.70;70.70;;;;;;10400230;28;20057;-83
2022/03/22 03:50:05;;;;;;;44.57;21.60;;;1.40;71.60;;;;;;10412902;28;20061;-83
2022/03/22 03:55:07;;;;;;;55.53;26.23;;;1.30;72.10;;;;;;10412623;28;20151;-83
2022/03/22 04:00:08;;;;;;;55.50;24.43;;;1.30;72.90;;;;;;10413101;28;20029;-82
2022/03/22 04:05:09;;;;;;;48.37;22.07;;;1.20;73.20;;;;;;10394969;28;20022;-83
2022/03/22 04:10:10;;;;;;;49.43;22.47;;;1.00;73.50;;;;;;10373387;28;20060;-83
2022/03/22 04:15:11;;;;;;;57.53;24.23;;;0.90;74.00;;;;;;10406353;28;20022;-83
2022/03/22 04:20:12;;;;;;;51.80;25.87;;;0.80;75.00;;;;;;10399752;28;20038;-83
2022/03/22 04:25:13;;;;;;;52.27;24.13;;;0.80;74.80;;;;;;10401039;28;20030;-84
2022/03/22 04:35:33;;;;;;;51.10;22.70;;;0.60;75.10;;;;;;10380375;28;20062;-83
2022/03/22 04:40:35;;;;;;;53.63;23.87;;;0.60;75.30;;;;;;10372665;28;20140;-86
2022/03/22 04:45:36;;;;;;;54.73;24.00;;;0.60;75.50;;;;;;10399672;28;20061;-85
2022/03/22 04:50:36;;;;;;;57.97;24.73;;;0.70;76.10;;;;;;10411194;28;20049;-83
2022/03/22 05:00:56;;;;;;;52.50;23.80;;;0.60;76.40;;;;;;10409630;28;20393;-86
2022/03/22 05:11:16;;;;;;;60.83;26.73;;;0.70;76.80;;;;;;10406638;28;20045;-84
2022/03/22 05:16:17;;;;;;;57.63;26.23;;;0.70;77.00;;;;;;10420918;28;20033;-83
2022/03/22 05:21:18;;;;;;;55.53;27.47;;;0.80;77.00;;;;;;10410970;28;20040;-84
2022/03/22 05:26:19;;;;;;;52.80;24.80;;;1.00;76.90;;;;;;10410907;28;20061;-84
2022/03/22 05:31:23;;;;;;;59.50;25.97;;;1.00;76.30;;;;;;10396555;28;20064;-85
2022/03/22 05:36:24;;;;;;;60.27;27.50;;;1.10;76.90;;;;;;10417687;28;20116;-83
2022/03/22 05:41:25;;;;;;;59.70;29.23;;;1.20;77.10;;;;;;10403339;28;20063;-83
2022/03/22 05:46:26;;;;;;;70.17;32.83;;;1.30;76.60;;;;;;10413533;28;20042;-83
2022/03/22 05:51:26;;;;;;;74.40;32.47;;;1.40;76.50;;;;;;10367916;28;20026;-83
2022/03/22 05:56:27;;;;;;;82.13;36.50;;;1.40;76.20;;;;;;10368131;28;20030;-82
2022/03/22 06:01:28;;;;;;;68.27;33.10;;;1.50;75.80;;;;;;10373233;28;20044;-83
2022/03/22 06:06:28;;;;;;;106.37;43.03;;;1.70;75.80;;;;;;10370897;28;20109;-84
2022/03/22 06:11:35;;;;;;;118.00;50.27;;;1.80;75.60;;;;;;10365275;28;20133;-83
2022/03/22 06:16:36;;;;;;;93.23;42.50;;;2.00;75.60;;;;;;10366464;28;20031;-83
2022/03/22 06:21:37;;;;;;;72.20;32.67;;;2.20;75.30;;;;;;10368777;28;20120;-83
2022/03/22 06:26:37;;;;;;;88.77;37.80;;;2.40;75.60;;;;;;10369000;28;20381;-83
2022/03/22 06:31:38;;;;;;;102.10;43.23;;;2.60;75.20;;;;;;10366844;28;20100;-83
2022/03/22 06:36:39;;;;;;;89.07;40.23;;;2.80;75.00;;;;;;10368145;28;20080;-83
2022/03/22 06:41:39;;;;;;;101.23;46.50;;;3.10;74.50;;;;;;10367199;28;20104;-85
2022/03/22 06:46:40;;;;;;;107.07;45.70;;;3.30;74.10;;;;;;10367935;28;20049;-83
2022/03/22 06:51:41;;;;;;;103.27;44.90;;;3.60;74.10;;;;;;10367695;28;20030;-83
2022/03/22 06:56:41;;;;;;;90.73;39.93;;;3.90;74.50;;;;;;10367191;28;20168;-85
2022/03/22 07:01:42;;;;;;;76.90;34.93;;;4.20;74.60;;;;;;10367213;28;20072;-83
2022/03/22 07:06:45;;;;;;;84.10;36.27;;;4.50;74.20;;;;;;10367502;28;20053;-84
2022/03/22 07:11:52;;;;;;;72.53;31.40;;;4.90;73.60;;;;;;10367286;28;20034;-83
2022/03/22 07:16:53;;;;;;;65.50;31.27;;;5.30;71.70;;;;;;10370194;28;20108;-83
2022/03/22 07:21:57;;;;;;;65.87;29.37;;;6.00;70.10;;;;;;10374685;28;20038;-83
2022/03/22 07:26:58;;;;;;;61.30;29.83;;;6.50;69.00;;;;;;10374694;28;20034;-85
2022/03/22 07:31:59;;;;;;;64.53;30.20;;;7.00;68.10;;;;;;10374403;28;20522;-84
2022/03/22 07:37:00;;;;;;;53.70;24.63;;;7.40;67.80;;;;;;10374333;28;20506;-84
2022/03/22 07:42:02;;;;;;;50.77;26.37;;;7.80;67.00;;;;;;10333389;28;20134;-84
2022/03/22 07:47:03;;;;;;;48.17;23.93;;;8.40;65.10;;;;;;10333912;28;20057;-85
2022/03/22 07:57:23;;;;;;;45.77;23.70;;;9.40;62.50;;;;;;10333519;28;20042;-86
2022/03/22 08:02:24;;;;;;;44.33;22.93;;;9.90;59.10;;;;;;10331518;28;20034;-84
2022/03/22 08:07:25;;;;;;;43.20;23.03;;;10.40;58.30;;;;;;10332533;28;20113;-84
2022/03/22 08:12:26;;;;;;;38.78;21.83;;;10.70;58.20;;;;;;10332674;28;20058;-86
2022/03/22 08:17:27;;;;;;;44.20;22.05;;;11.10;57.00;;;;;;10332603;28;20038;-84
2022/03/22 08:22:27;;;;;;;38.42;20.92;;;11.30;55.70;;;;;;10332616;28;20105;-86
2022/03/22 08:27:28;;;;;;;41.00;22.40;;;11.60;55.50;;;;;;10331439;28;20509;-85
2022/03/22 08:32:29;;;;;;;40.40;22.52;;;11.90;53.50;;;;;;10331763;28;20037;-84
2022/03/22 08:37:29;;;;;;;46.53;23.75;;;12.20;54.70;;;;;;10335387;28;20062;-84
2022/03/22 08:42:30;;;;;;;38.33;20.98;;;12.60;53.10;;;;;;10372524;28;20050;-84
2022/03/22 08:47:33;;;;;;;35.90;20.30;;;12.80;54.00;;;;;;10372052;28;20030;-86
2022/03/22 08:52:35;;;;;;;122.18;71.55;;;13.20;52.00;;;;;;10370019;28;20073;-84
2022/03/22 08:57:36;;;;;;;40.72;22.25;;;13.50;52.90;;;;;;10371073;28;20054;-87
2022/03/22 09:02:42;;;;;;;36.95;19.45;;;13.80;53.10;;;;;;10386523;28;20034;-84
2022/03/22 09:07:42;;;;;;;34.17;18.63;;;14.00;51.70;;;;;;10370642;28;20033;-84
2022/03/22 09:12:43;;;;;;;39.22;20.58;;;14.30;50.90;;;;;;10370813;28;20018;-84
2022/03/22 09:17:44;;;;;;;36.70;20.10;;;14.50;51.40;;;;;;10370368;28;20080;-85
2022/03/22 09:22:48;;;;;;;37.15;20.10;;;14.70;49.50;;;;;;10370110;28;20034;-84
2022/03/22 09:27:49;;;;;;;35.33;19.42;;;15.00;50.50;;;;;;10370445;28;20021;-84
2022/03/22 09:32:50;;;;;;;33.28;19.67;;;15.30;49.70;;;;;;10368594;28;20563;-82
2022/03/22 09:37:51;;;;;;;31.35;17.95;;;15.60;50.00;;;;;;10369785;28;20056;-82
2022/03/22 09:42:54;;;;;;;34.47;18.73;;;15.70;48.20;;;;;;10368954;28;20060;-82
2022/03/22 09:47:56;;;;;;;36.47;20.65;;;15.90;48.90;;;;;;10369826;28;20482;-82
2022/03/22 09:52:57;;;;;;;32.55;17.23;;;16.20;48.60;;;;;;10369282;28;20485;-84
2022/03/22 09:57:58;;;;;;;32.17;19.95;;;16.30;47.50;;;;;;10384213;28;20030;-82
2022/03/22 10:02:59;;;;;;;32.60;18.65;;;16.60;47.90;;;;;;10368882;28;20045;-82
2022/03/22 10:08:05;;;;;;;36.08;20.80;;;16.60;46.50;;;;;;10368460;28;20125;-82
2022/03/22 10:13:06;;;;;;;29.92;17.85;;;16.80;47.00;;;;;;10383565;28;20082;-83
2022/03/22 10:18:10;;;;;;;222.88;93.43;;;16.90;47.00;;;;;;10368668;28;20160;-84
2022/03/22 10:23:11;;;;;;;54.47;36.60;;;17.10;47.10;;;;;;10366802;28;20165;-82
2022/03/22 10:28:12;;;;;;;26.05;15.07;;;17.20;47.40;;;;;;10368376;28;20167;-82
2022/03/22 10:33:13;;;;;;;33.40;18.80;;;17.20;45.40;;;;;;10368305;28;20152;-82
2022/03/22 10:38:18;;;;;;;30.50;17.45;;;17.30;45.60;;;;;;10367692;28;20103;-85
2022/03/22 10:43:20;;;;;;;27.50;18.90;;;17.40;44.10;;;;;;10367579;28;20133;-82
2022/03/22 10:48:28;;;;;;;27.77;17.63;;;17.60;45.20;;;;;;10368136;28;20033;-83
2022/03/22 10:53:31;;;;;;;25.85;14.80;;;17.80;45.70;;;;;;10367332;28;20022;-83
2022/03/22 10:58:35;;;;;;;44.58;29.40;;;18.00;44.60;;;;;;10365654;28;20120;-84
2022/03/22 11:03:36;;;;;;;29.40;14.98;;;18.00;43.70;;;;;;10367796;28;20040;-83
2022/03/22 11:08:40;;;;;;;26.38;14.48;;;17.90;42.80;;;;;;10366976;28;20026;-83
2022/03/22 11:13:41;;;;;;;25.65;15.38;;;18.10;44.50;;;;;;10367628;28;20026;-84
2022/03/22 11:18:42;;;;;;;24.27;13.02;;;18.50;44.70;;;;;;10366729;28;20040;-83
2022/03/22 11:23:44;;;;;;;22.13;13.13;;;18.40;43.20;;;;;;10367483;28;20088;-82
2022/03/22 11:28:48;;;;;;;25.55;13.73;;;18.50;44.40;;;;;;10367121;28;20025;-83
2022/03/22 11:39:10;;;;;;;27.92;14.45;;;18.40;41.40;;;;;;10366811;28;20050;-83
2022/03/22 11:44:12;;;;;;;21.88;13.88;;;18.40;42.80;;;;;;10404531;28;20464;-83
2022/03/22 11:49:21;;;;;;;22.92;14.02;;;18.50;43.70;;;;;;10407776;28;20032;-82
2022/03/22 11:54:23;;;;;;;28.85;16.15;;;18.80;43.70;;;;;;10407484;28;20544;-82
2022/03/22 11:59:25;;;;;;;77.50;52.33;;;19.10;43.50;;;;;;10407497;28;20036;-82
2022/03/22 12:04:41;;;;;;;51.00;33.70;;;19.10;42.80;;;;;;10410635;28;20731;-82
2022/03/22 12:09:43;;;;;;;57.90;38.65;;;19.20;43.20;;;;;;10412931;28;20036;-82
2022/03/22 12:14:48;;;;;;;27.20;17.48;;;19.30;42.90;;;;;;10414229;28;20061;-82
2022/03/22 12:19:48;;;;;;;27.70;16.57;;;19.40;42.00;;;;;;10413454;28;20034;-82
2022/03/22 12:24:49;;;;;;;28.55;17.92;;;19.40;40.90;;;;;;10412610;28;20041;-82
2022/03/22 12:29:52;;;;;;;28.10;17.65;;;19.30;42.10;;;;;;10413060;28;20473;-82
2022/03/22 12:34:53;;;;;;;25.80;17.73;;;19.50;42.40;;;;;;10413270;28;20513;-83
2022/03/22 12:39:53;;;;;;;19.45;11.63;;;19.70;42.00;;;;;;10413342;28;20081;-83
2022/03/22 12:44:54;;;;;;;17.60;9.68;;;19.70;41.20;;;;;;10413387;28;20053;-82
2022/03/22 12:49:55;;;;;;;17.23;9.68;;;19.60;41.10;;;;;;10412520;28;20025;-82
2022/03/22 12:54:56;;;;;;;13.88;8.15;;;19.80;40.70;;;;;;10411192;28;20032;-83
2022/03/22 12:59:57;;;;;;;20.50;11.02;;;19.90;39.50;;;;;;10412352;28;20041;-82
2022/03/22 13:04:58;;;;;;;18.98;11.48;;;19.70;40.60;;;;;;10411857;28;20587;-84
2022/03/22 13:15:20;;;;;;;15.85;9.60;;;19.90;39.90;;;;;;10412082;28;20291;-82
2022/03/22 13:20:25;;;;;;;14.68;9.55;;;19.60;40.60;;;;;;10411568;28;20083;-83
2022/03/22 13:25:33;;;;;;;22.10;15.15;;;19.60;40.40;;;;;;10411942;28;20025;-83
2022/03/22 13:30:35;;;;;;;66.85;38.80;;;19.70;40.30;;;;;;10411476;28;20037;-83
2022/03/22 13:35:36;;;;;;;46.53;28.73;;;19.80;40.30;;;;;;10411391;28;20389;-84
2022/03/22 13:40:39;;;;;;;19.00;10.48;;;19.60;40.20;;;;;;10402858;28;20908;-85
2022/03/22 13:45:51;;;;;;;20.50;11.77;;;19.60;40.30;;;;;;10392264;28;20022;-83
2022/03/22 13:50:53;;;;;;;18.63;12.43;;;19.40;40.20;;;;;;10392626;28;20033;-83
2022/03/22 13:56:09;;;;;;;21.20;11.98;;;19.40;40.40;;;;;;10403708;28;20036;-84
2022/03/22 14:01:11;;;;;;;;;;;19.50;40.10;;;;;;10400893;28;20095;-85
2022/03/22 14:06:12;;;;;;;22.52;13.07;;;19.40;40.40;;;;;;10405844;28;19979;-83
2022/03/22 14:11:16;;;;;;;27.42;18.33;;;19.40;40.30;;;;;;10400760;28;20124;-84
2022/03/22 14:16:16;;;;;;;32.30;21.38;;;19.30;40.80;;;;;;10406903;28;20065;-84
2022/03/22 14:21:18;;;;;;;26.65;18.88;;;19.40;40.10;;;;;;10405333;28;20570;-83
2022/03/22 14:26:19;;;;;;;27.27;18.60;;;19.30;40.40;;;;;;10391776;28;20203;-83
2022/03/22 14:31:19;;;;;;;25.80;18.70;;;19.20;39.10;;;;;;10408289;28;20049;-82
2022/03/22 14:36:20;;;;;;;18.05;9.45;;;19.10;40.40;;;;;;10403578;28;20053;-83
2022/03/22 14:41:27;;;;;;;24.92;16.08;;;19.00;39.20;;;;;;10371751;28;20063;-84
2022/03/22 14:46:30;;;;;;;20.63;12.32;;;18.90;40.60;;;;;;10368154;28;20083;-84
2022/03/22 15:02:11;;;;;;;40.13;20.23;;;18.50;41.20;;;;;;10406197;28;20049;-84
2022/03/22 15:07:15;;;;;;;24.88;14.50;;;18.30;41.40;;;;;;10402282;28;20112;-84
2022/03/22 15:12:16;;;;;;;19.13;11.88;;;18.30;41.00;;;;;;10405837;28;20882;-83
2022/03/22 15:17:16;;;;;;;21.50;12.50;;;18.20;40.30;;;;;;10408377;28;20536;-83
2022/03/22 15:22:17;;;;;;;21.33;12.35;;;18.10;41.00;;;;;;10401707;28;20061;-83
2022/03/22 15:27:18;;;;;;;35.97;23.17;;;18.10;40.30;;;;;;10400965;28;20474;-84
2022/03/22 15:32:19;;;;;;;18.58;10.70;;;18.10;40.50;;;;;;10401227;28;20500;-84
2022/03/22 15:37:20;;;;;;;25.50;17.83;;;18.00;39.60;;;;;;10405157;28;20035;-84
2022/03/22 15:42:21;;;;;;;28.75;18.85;;;17.80;40.50;;;;;;10415692;28;20061;-85
2022/03/22 15:47:21;;;;;;;30.60;21.08;;;17.70;41.00;;;;;;10402769;28;20036;-84
2022/03/22 15:52:22;;;;;;;28.17;19.30;;;17.60;41.00;;;;;;10373635;28;20030;-84
2022/03/22 15:57:23;;;;;;;25.02;14.35;;;17.50;40.60;;;;;;10393025;28;20035;-84
2022/03/22 16:02:25;;;;;;;30.42;18.25;;;17.30;41.60;;;;;;10392917;28;20132;-84
2022/03/22 16:07:26;;;;;;;66.45;34.10;;;17.20;42.00;;;;;;10399764;28;20029;-84
2022/03/22 16:12:27;;;;;;;36.50;23.17;;;17.00;42.10;;;;;;10413993;28;20030;-83
2022/03/22 16:17:29;;;;;;;40.85;21.55;;;16.80;42.50;;;;;;10414040;28;20116;-84
2022/03/22 16:22:30;;;;;;;30.75;15.70;;;16.60;43.00;;;;;;10413718;28;20033;-84
2022/03/22 16:27:31;;;;;;;32.47;16.40;;;16.20;43.70;;;;;;10413387;28;20358;-84
2022/03/22 16:37:51;;;;;;;40.75;21.98;;;15.50;44.10;;;;;;10412680;28;20065;-83
2022/03/22 16:42:52;;;;;;;29.17;15.80;;;15.00;44.80;;;;;;10413210;28;20049;-83
2022/03/22 16:47:52;;;;;;;28.02;15.05;;;14.70;46.20;;;;;;10412171;28;20461;-84
2022/03/22 16:52:53;;;;;;;27.73;15.27;;;14.50;47.00;;;;;;10412246;28;20045;-85
2022/03/22 16:57:54;;;;;;;134.70;70.80;;;14.10;47.70;;;;;;10412122;28;20453;-84
2022/03/22 17:02:54;;;;;;;283.42;150.95;;;13.90;48.40;;;;;;10411554;28;20037;-84
2022/03/22 17:07:55;;;;;;;89.63;44.58;;;13.60;49.00;;;;;;10411056;28;20438;-85
2022/03/22 17:12:58;;;;;;;32.88;18.67;;;13.20;49.40;;;;;;10410072;28;20029;-84
2022/03/22 17:18:01;;;;;;;39.17;20.73;;;12.90;49.90;;;;;;10411812;28;20108;-84
2022/03/22 17:23:02;;;;;;;44.70;24.85;;;12.80;50.50;;;;;;10411709;28;20120;-84
2022/03/22 17:28:04;;;;;;;43.70;22.00;;;12.60;50.60;;;;;;10411460;28;20525;-84
2022/03/22 17:33:05;;;;;;;42.38;22.60;;;12.50;51.20;;;;;;10410036;28;20072;-83
2022/03/22 17:38:09;;;;;;;57.03;29.85;;;12.20;51.70;;;;;;10410581;28;20102;-83
2022/03/22 17:43:10;;;;;;;87.75;58.78;;;12.00;52.60;;;;;;10408063;28;20151;-83
2022/03/22 17:48:10;;;;;;;44.20;25.65;;;11.70;52.80;;;;;;10390540;28;20112;-84
2022/03/22 17:53:11;;;;;;;39.22;18.75;;;11.70;53.30;;;;;;10409973;28;20160;-85
2022/03/22 17:58:12;;;;;;;40.50;19.67;;;11.50;54.10;;;;;;10410207;28;20033;-83
2022/03/22 18:03:13;;;;;;;30.83;17.30;;;11.30;54.30;;;;;;10401445;28;20053;-84
2022/03/22 18:08:13;;;;;;;40.05;20.85;;;11.00;54.60;;;;;;10391389;28;20110;-83
2022/03/22 18:13:15;;;;;;;57.05;28.02;;;10.70;55.10;;;;;;10406521;28;20038;-83
2022/03/22 18:18:19;;;;;;;58.17;30.50;;;10.30;55.70;;;;;;10396509;28;20478;-83
2022/03/22 18:23:20;;;;;;;76.33;36.90;;;10.20;56.30;;;;;;10379302;28;20068;-84
2022/03/22 18:28:20;;;;;;;293.67;115.40;;;10.00;57.00;;;;;;10396404;28;20036;-83
2022/03/22 18:33:21;;;;;;;93.00;46.43;;;10.00;57.00;;;;;;10408906;28;20036;-86
2022/03/22 18:38:22;;;;;;;100.27;46.70;;;9.70;57.50;;;;;;10402432;28;20053;-83
2022/03/22 18:43:22;;;;;;;100.17;46.83;;;9.40;57.70;;;;;;10397839;28;20167;-84
2022/03/22 18:48:23;;;;;;;96.23;45.20;;;9.20;58.30;;;;;;10402788;28;20052;-83
2022/03/22 18:53:25;;;;;;;95.67;47.60;;;9.00;58.60;;;;;;10405061;28;20021;-82
2022/03/22 18:58:25;;;;;;;101.57;46.67;;;8.90;59.20;;;;;;10388855;28;20026;-83
2022/03/22 19:03:27;;;;;;;92.20;44.93;;;8.70;59.40;;;;;;10405659;28;20056;-84
2022/03/22 19:08:31;;;;;;;90.50;42.80;;;8.50;59.30;;;;;;10398167;28;20033;-83
2022/03/22 19:13:33;;;;;;;91.00;45.50;;;8.40;60.10;;;;;;10404524;28;20021;-84
2022/03/22 19:18:35;;;;;;;86.07;42.80;;;8.40;60.30;;;;;;10401778;28;20037;-82
2022/03/22 19:23:38;;;;;;;89.77;43.87;;;8.40;60.80;;;;;;10409856;28;20743;-81
2022/03/22 19:28:39;;;;;;;88.30;41.40;;;8.50;60.60;;;;;;10408315;28;20033;-83
2022/03/22 19:33:39;;;;;;;88.23;40.53;;;8.40;60.60;;;;;;10396777;28;20543;-83
2022/03/22 19:38:41;;;;;;;76.43;36.87;;;8.30;61.30;;;;;;10412223;28;20055;-83
2022/03/22 19:43:46;;;;;;;69.47;34.10;;;8.20;61.10;;;;;;10408173;28;20504;-83
2022/03/22 19:49:16;;;;;;;75.87;35.43;;;8.00;61.60;;;;;;10412266;28;20116;-83
2022/03/22 19:54:17;;;;;;;68.07;35.07;;;8.00;61.60;;;;;;10404422;28;20477;-83
2022/03/22 19:59:17;;;;;;;73.23;35.67;;;7.90;61.70;;;;;;10405479;28;20052;-84
2022/03/22 20:04:18;;;;;;;81.03;39.03;;;7.90;61.90;;;;;;10399855;28;20026;-84
2022/03/22 20:09:19;;;;;;;75.37;35.97;;;7.90;62.20;;;;;;10408025;28;20044;-84
2022/03/22 20:14:20;;;;;;;71.97;35.33;;;7.90;62.50;;;;;;10401123;28;20396;-83
2022/03/22 20:19:21;;;;;;;80.03;36.93;;;7.90;62.50;;;;;;10410620;28;20033;-82
2022/03/22 20:24:22;;;;;;;75.90;35.77;;;7.80;63.20;;;;;;10404632;28;20041;-83
2022/03/22 20:29:23;;;;;;;74.27;34.97;;;7.70;63.10;;;;;;10402269;28;20040;-83
2022/03/22 20:34:24;;;;;;;77.03;36.30;;;7.70;63.40;;;;;;10409346;28;20030;-82
2022/03/22 20:39:24;;;;;;;83.90;38.03;;;7.60;63.50;;;;;;10409996;28;20049;-83
2022/03/22 20:44:26;;;;;;;76.07;35.77;;;7.50;63.90;;;;;;10412576;28;20051;-83
2022/03/22 20:49:29;;;;;;;80.50;36.27;;;7.40;64.50;;;;;;10394103;28;20087;-82
2022/03/22 20:54:30;;;;;;;68.10;34.03;;;7.50;64.20;;;;;;10407246;28;20095;-82
2022/03/22 20:59:32;;;;;;;70.93;34.93;;;7.40;64.50;;;;;;10396318;28;20038;-82
2022/03/22 21:04:32;;;;;;;67.90;31.00;;;7.30;64.80;;;;;;10419392;28;20029;-83
2022/03/22 21:09:33;;;;;;;70.73;32.53;;;7.20;64.70;;;;;;10410257;28;20076;-83
2022/03/22 21:14:34;;;;;;;70.60;34.50;;;7.20;65.20;;;;;;10416283;28;20059;-83
2022/03/22 21:19:36;;;;;;;63.37;30.03;;;7.10;65.50;;;;;;10416417;28;20037;-82
2022/03/22 21:24:37;;;;;;;63.90;31.03;;;7.10;65.20;;;;;;10428887;28;20698;-83
2022/03/22 21:29:38;;;;;;;80.33;35.00;;;7.10;65.40;;;;;;10429697;28;20025;-82
2022/03/22 21:34:41;;;;;;;75.87;35.40;;;7.10;66.10;;;;;;10430575;28;20102;-83
2022/03/22 21:39:42;;;;;;;77.13;37.17;;;7.00;66.10;;;;;;10401194;28;20551;-82
2022/03/22 21:44:43;;;;;;;72.27;34.27;;;7.00;66.50;;;;;;10401553;28;20496;-82
2022/03/22 21:49:43;;;;;;;73.30;35.60;;;7.10;66.40;;;;;;10391533;28;20041;-83
2022/03/22 21:54:44;;;;;;;74.50;33.17;;;7.20;66.60;;;;;;10376193;28;20038;-83
2022/03/22 21:59:45;;;;;;;67.23;31.67;;;7.10;65.90;;;;;;10388656;28;20048;-83
2022/03/22 22:04:46;;;;;;;76.33;34.90;;;6.80;66.80;;;;;;10406299;28;20048;-83
2022/03/22 22:09:47;;;;;;;72.30;33.27;;;6.70;66.90;;;;;;10392464;28;20099;-82
2022/03/22 22:14:48;;;;;;;69.37;32.87;;;6.80;67.10;;;;;;10405629;28;20060;-82
2022/03/22 22:19:49;;;;;;;71.70;34.77;;;6.90;66.80;;;;;;10397488;28;20045;-83
2022/03/22 22:24:50;;;;;;;95.23;41.90;;;6.80;67.10;;;;;;10397463;28;20558;-83
2022/03/22 22:29:51;;;;;;;128.77;57.93;;;6.50;67.40;;;;;;10406687;28;20038;-82
2022/03/22 22:34:52;;;;;;;105.27;49.73;;;6.20;67.70;;;;;;10405256;28;20041;-82
2022/03/22 22:39:53;;;;;;;83.70;36.33;;;6.20;68.10;;;;;;10385619;28;20049;-82
2022/03/22 22:44:54;;;;;;;74.17;35.23;;;6.10;68.10;;;;;;10407820;28;20697;-82
2022/03/22 22:49:55;;;;;;;99.37;48.20;;;6.00;68.30;;;;;;10407106;28;20021;-83
2022/03/22 22:54:56;;;;;;;78.23;34.27;;;5.80;68.50;;;;;;10402173;28;20022;-82
2022/03/22 22:59:57;;;;;;;77.83;34.20;;;5.80;68.90;;;;;;10374289;28;20358;-82
2022/03/22 23:04:58;;;;;;;74.00;34.50;;;5.70;68.90;;;;;;10407146;28;20037;-82
2022/03/22 23:10:16;;;;;;;72.00;33.17;;;5.70;68.90;;;;;;10400836;28;20462;-83
2022/03/22 23:15:17;;;;;;;82.10;35.97;;;5.70;69.10;;;;;;10378579;28;20126;-82
2022/03/22 23:26:15;;;;;;;76.15;35.35;;;5.80;69.60;;;;;;10399976;28;20493;-82
2022/03/22 23:31:15;;;;;;;73.53;34.27;;;5.50;69.70;;;;;;10403141;28;20025;-82
2022/03/22 23:36:16;;;;;;;73.70;32.87;;;5.50;70.20;;;;;;10406612;28;20449;-82
2022/03/22 23:41:16;;;;;;;67.10;29.97;;;5.50;70.20;;;;;;10406530;28;20524;-83
2022/03/22 23:46:17;;;;;;;56.77;27.37;;;5.60;70.10;;;;;;10397744;28;20049;-82
2022/03/22 23:51:18;;;;;;;65.10;29.00;;;5.60;70.60;;;;;;10372593;28;20108;-82
2022/03/22 23:56:18;;;;;;;66.60;29.87;;;5.70;69.70;;;;;;10390340;28;20036;-82
